sensor_id;sensor_type;location;lat;lon;timestamp;pressure;altitude;pressure_sealevel;temperature;humidity
19761;BME280;10039;42.632;23.408;2023-02-28T00:00:34;95437.47;;;8.69;78.48
19761;BME280;10039;42.632;23.408;2023-02-28T00:03:00;95446.09;;;8.87;77.80
19761;BME280;10039;42.632;23.408;2023-02-28T00:05:27;95414.25;;;8.69;77.55
19761;BME280;10039;42.632;23.408;2023-02-28T00:07:53;95434.75;;;8.79;77.34
19761;BME280;10039;42.632;23.408;2023-02-28T00:10:22;95440.75;;;8.93;77.23
19761;BME280;10039;42.632;23.408;2023-02-28T00:12:51;95466.88;;;9.12;76.74
19761;BME280;10039;42.632;23.408;2023-02-28T00:15:17;95447.56;;;9.01;76.78
19761;BME280;10039;42.632;23.408;2023-02-28T00:17:43;95435.88;;;8.85;76.43
19761;BME280;10039;42.632;23.408;2023-02-28T00:20:10;95434.31;;;8.88;76.76
19761;BME280;10039;42.632;23.408;2023-02-28T00:22:45;95426.34;;;8.88;76.39
19761;BME280;10039;42.632;23.408;2023-02-28T00:25:14;95463.47;;;9.08;76.89
19761;BME280;10039;42.632;23.408;2023-02-28T00:27:40;95421.09;;;8.74;76.81
19761;BME280;10039;42.632;23.408;2023-02-28T00:30:09;95432.44;;;8.85;77.31
19761;BME280;10039;42.632;23.408;2023-02-28T00:32:35;95448.38;;;8.91;76.77
19761;BME280;10039;42.632;23.408;2023-02-28T00:35:02;95454.44;;;8.95;77.41
19761;BME280;10039;42.632;23.408;2023-02-28T00:37:27;95476.09;;;8.97;78.39
19761;BME280;10039;42.632;23.408;2023-02-28T00:39:53;95424.91;;;8.69;78.56
19761;BME280;10039;42.632;23.408;2023-02-28T00:42:18;95465.06;;;9.02;78.44
19761;BME280;10039;42.632;23.408;2023-02-28T00:44:43;95445.28;;;9.03;78.22
19761;BME280;10039;42.632;23.408;2023-02-28T00:47:09;95446.00;;;9.11;77.80
19761;BME280;10039;42.632;23.408;2023-02-28T00:49:34;95408.91;;;8.76;77.53
19761;BME280;10039;42.632;23.408;2023-02-28T00:52:00;95442.53;;;9.17;76.67
19761;BME280;10039;42.632;23.408;2023-02-28T00:54:26;95420.53;;;9.06;76.76
19761;BME280;10039;42.632;23.408;2023-02-28T00:56:52;95442.13;;;9.22;76.72
19761;BME280;10039;42.632;23.408;2023-02-28T00:59:17;95440.31;;;9.02;76.88
19761;BME280;10039;42.632;23.408;2023-02-28T01:01:45;95440.78;;;8.90;77.29
19761;BME280;10039;42.632;23.408;2023-02-28T01:04:11;95468.81;;;9.12;77.12
19761;BME280;10039;42.632;23.408;2023-02-28T01:06:37;95443.34;;;9.07;76.49
19761;BME280;10039;42.632;23.408;2023-02-28T01:09:04;95454.06;;;8.93;77.35
19761;BME280;10039;42.632;23.408;2023-02-28T01:11:30;95446.13;;;8.80;77.62
19761;BME280;10039;42.632;23.408;2023-02-28T01:13:56;95443.47;;;8.80;78.03
19761;BME280;10039;42.632;23.408;2023-02-28T01:16:21;95434.81;;;8.69;78.09
19761;BME280;10039;42.632;23.408;2023-02-28T01:18:47;95410.50;;;8.60;78.62
19761;BME280;10039;42.632;23.408;2023-02-28T01:21:15;95438.50;;;8.88;78.26
19761;BME280;10039;42.632;23.408;2023-02-28T01:23:42;95433.19;;;8.92;78.02
19761;BME280;10039;42.632;23.408;2023-02-28T01:28:35;95449.84;;;9.06;77.98
19761;BME280;10039;42.632;23.408;2023-02-28T01:31:01;95425.91;;;8.96;76.72
19761;BME280;10039;42.632;23.408;2023-02-28T01:33:27;95419.88;;;8.92;76.88
19761;BME280;10039;42.632;23.408;2023-02-28T01:36:05;95424.00;;;9.00;76.58
19761;BME280;10039;42.632;23.408;2023-02-28T01:38:32;95429.41;;;8.83;76.17
19761;BME280;10039;42.632;23.408;2023-02-28T01:40:58;95435.41;;;8.97;76.85
19761;BME280;10039;42.632;23.408;2023-02-28T01:45:52;95447.59;;;8.94;76.28
19761;BME280;10039;42.632;23.408;2023-02-28T01:48:20;95440.88;;;8.73;77.21
19761;BME280;10039;42.632;23.408;2023-02-28T01:50:47;95423.38;;;8.72;77.11
19761;BME280;10039;42.632;23.408;2023-02-28T01:53:18;95419.56;;;8.76;77.04
19761;BME280;10039;42.632;23.408;2023-02-28T01:55:47;95444.59;;;8.86;77.25
19761;BME280;10039;42.632;23.408;2023-02-28T01:58:15;95445.47;;;8.62;77.70
19761;BME280;10039;42.632;23.408;2023-02-28T02:00:41;95424.22;;;8.48;78.00
19761;BME280;10039;42.632;23.408;2023-02-28T02:03:13;95450.00;;;8.68;77.24
19761;BME280;10039;42.632;23.408;2023-02-28T02:05:40;95457.56;;;8.73;76.92
19761;BME280;10039;42.632;23.408;2023-02-28T02:08:18;95437.50;;;8.58;77.31
19761;BME280;10039;42.632;23.408;2023-02-28T02:10:49;95436.69;;;8.72;77.40
19761;BME280;10039;42.632;23.408;2023-02-28T02:38:38;95454.69;;;8.15;80.54
19761;BME280;10039;42.632;23.408;2023-02-28T02:43:50;95453.19;;;8.18;80.71
19761;BME280;10039;42.632;23.408;2023-02-28T02:46:29;95466.84;;;8.23;80.22
19761;BME280;10039;42.632;23.408;2023-02-28T02:48:57;95472.16;;;8.34;79.86
19761;BME280;10039;42.632;23.408;2023-02-28T02:51:25;95469.84;;;8.43;79.83
19761;BME280;10039;42.632;23.408;2023-02-28T02:53:57;95425.44;;;8.19;79.06
19761;BME280;10039;42.632;23.408;2023-02-28T02:56:28;95445.56;;;8.30;78.74
19761;BME280;10039;42.632;23.408;2023-02-28T02:59:01;95474.75;;;8.48;78.63
19761;BME280;10039;42.632;23.408;2023-02-28T03:01:29;95456.94;;;8.38;78.31
19761;BME280;10039;42.632;23.408;2023-02-28T03:04:17;95445.94;;;8.29;77.47
19761;BME280;10039;42.632;23.408;2023-02-28T03:06:43;95496.84;;;8.27;77.73
19761;BME280;10039;42.632;23.408;2023-02-28T03:09:09;95491.94;;;7.94;78.57
19761;BME280;10039;42.632;23.408;2023-02-28T03:11:36;95513.94;;;7.95;79.41
19761;BME280;10039;42.632;23.408;2023-02-28T03:28:23;95524.56;;;7.88;79.41
19761;BME280;10039;42.632;23.408;2023-02-28T03:31:19;95497.22;;;7.70;79.41
19761;BME280;10039;42.632;23.408;2023-02-28T03:34:14;95523.81;;;7.94;79.78
19761;BME280;10039;42.632;23.408;2023-02-28T03:36:55;95476.75;;;7.57;80.02
19761;BME280;10039;42.632;23.408;2023-02-28T03:39:29;95523.81;;;7.87;80.16
19761;BME280;10039;42.632;23.408;2023-02-28T03:42:05;95505.19;;;7.80;80.18
19761;BME280;10039;42.632;23.408;2023-02-28T03:44:39;95497.22;;;7.63;80.20
19761;BME280;10039;42.632;23.408;2023-02-28T03:49:54;95529.84;;;7.81;81.58
19761;BME280;10039;42.632;23.408;2023-02-28T03:52:26;95514.69;;;7.85;81.50
19761;BME280;10039;42.632;23.408;2023-02-28T03:54:56;95532.16;;;8.00;80.86
19761;BME280;10039;42.632;23.408;2023-02-28T04:00:21;95501.38;;;7.57;80.78
19761;BME280;10039;42.632;23.408;2023-02-28T04:02:54;95488.47;;;7.49;81.01
19761;BME280;10039;42.632;23.408;2023-02-28T04:05:21;95538.59;;;7.85;81.50
19761;BME280;10039;42.632;23.408;2023-02-28T04:07:46;95520.75;;;7.89;80.70
19761;BME280;10039;42.632;23.408;2023-02-28T04:10:13;95522.28;;;8.11;79.96
19761;BME280;10039;42.632;23.408;2023-02-28T04:12:39;95498.75;;;7.85;79.82
19761;BME280;10039;42.632;23.408;2023-02-28T04:15:05;95534.06;;;8.10;79.73
19761;BME280;10039;42.632;23.408;2023-02-28T04:17:31;95539.00;;;8.01;80.59
19761;BME280;10039;42.632;23.408;2023-02-28T04:19:57;95505.56;;;7.75;80.66
19761;BME280;10039;42.632;23.408;2023-02-28T04:22:22;95504.06;;;7.64;80.64
19761;BME280;10039;42.632;23.408;2023-02-28T04:24:51;95547.72;;;7.94;80.96
19761;BME280;10039;42.632;23.408;2023-02-28T04:27:16;95521.50;;;8.03;80.86
19761;BME280;10039;42.632;23.408;2023-02-28T04:29:42;95493.44;;;7.64;81.10
19761;BME280;10039;42.632;23.408;2023-02-28T04:32:10;95508.97;;;7.83;81.06
19761;BME280;10039;42.632;23.408;2023-02-28T04:34:35;95535.19;;;8.09;80.31
19761;BME280;10039;42.632;23.408;2023-02-28T04:37:01;95529.13;;;8.15;79.58
19761;BME280;10039;42.632;23.408;2023-02-28T04:39:28;95506.72;;;8.09;79.79
19761;BME280;10039;42.632;23.408;2023-02-28T04:41:55;95522.66;;;8.02;79.25
19761;BME280;10039;42.632;23.408;2023-02-28T04:44:22;95513.19;;;7.94;79.15
19761;BME280;10039;42.632;23.408;2023-02-28T04:46:48;95550.41;;;8.26;78.47
19761;BME280;10039;42.632;23.408;2023-02-28T04:49:14;95531.75;;;7.70;79.91
19761;BME280;10039;42.632;23.408;2023-02-28T04:51:40;95522.25;;;7.55;80.75
19761;BME280;10039;42.632;23.408;2023-02-28T04:54:06;95554.88;;;7.59;81.42
19761;BME280;10039;42.632;23.408;2023-02-28T04:56:32;95556.06;;;7.72;81.93
19761;BME280;10039;42.632;23.408;2023-02-28T04:58:57;95530.19;;;7.45;81.90
19761;BME280;10039;42.632;23.408;2023-02-28T05:01:31;95527.56;;;7.48;81.84
19761;BME280;10039;42.632;23.408;2023-02-28T05:03:59;95549.94;;;7.61;82.10
19761;BME280;10039;42.632;23.408;2023-02-28T05:06:26;95526.81;;;7.69;81.78
19761;BME280;10039;42.632;23.408;2023-02-28T05:08:52;95529.84;;;7.81;80.70
19761;BME280;10039;42.632;23.408;2023-02-28T05:11:29;95535.91;;;7.64;80.58
19761;BME280;10039;42.632;23.408;2023-02-28T05:14:01;95539.34;;;7.68;81.32
19761;BME280;10039;42.632;23.408;2023-02-28T05:16:27;95552.63;;;7.72;81.34
19761;BME280;10039;42.632;23.408;2023-02-28T05:18:52;95553.00;;;7.84;81.08
19761;BME280;10039;42.632;23.408;2023-02-28T05:21:32;95565.56;;;8.04;80.45
19761;BME280;10039;42.632;23.408;2023-02-28T05:23:59;95535.56;;;7.76;80.75
19761;BME280;10039;42.632;23.408;2023-02-28T05:26:26;95549.59;;;7.87;80.64
19761;BME280;10039;42.632;23.408;2023-02-28T05:28:52;95537.44;;;7.86;80.09
19761;BME280;10039;42.632;23.408;2023-02-28T05:31:17;95557.16;;;7.68;80.45
19761;BME280;10039;42.632;23.408;2023-02-28T05:33:43;95529.81;;;7.53;81.77
19761;BME280;10039;42.632;23.408;2023-02-28T05:36:08;95581.47;;;7.87;81.47
19761;BME280;10039;42.632;23.408;2023-02-28T05:38:34;95583.78;;;7.92;81.13
19761;BME280;10039;42.632;23.408;2023-02-28T05:40:59;95563.97;;;7.58;82.14
19761;BME280;10039;42.632;23.408;2023-02-28T05:43:25;95592.88;;;7.91;81.96
19761;BME280;10039;42.632;23.408;2023-02-28T05:45:51;95606.56;;;8.07;81.32
19761;BME280;10039;42.632;23.408;2023-02-28T05:48:17;95593.66;;;7.91;81.56
19761;BME280;10039;42.632;23.408;2023-02-28T05:50:43;95594.78;;;8.04;81.12
19761;BME280;10039;42.632;23.408;2023-02-28T05:53:11;95606.97;;;8.23;80.54
19761;BME280;10039;42.632;23.408;2023-02-28T05:55:37;95592.53;;;8.17;79.85
19761;BME280;10039;42.632;23.408;2023-02-28T05:58:03;95576.56;;;7.92;79.84
19761;BME280;10039;42.632;23.408;2023-02-28T06:00:28;95561.75;;;7.84;79.72
19761;BME280;10039;42.632;23.408;2023-02-28T06:02:54;95570.13;;;7.97;79.51
19761;BME280;10039;42.632;23.408;2023-02-28T06:05:23;95576.94;;;7.91;80.65
19761;BME280;10039;42.632;23.408;2023-02-28T06:07:48;95593.28;;;7.96;81.05
19761;BME280;10039;42.632;23.408;2023-02-28T06:10:14;95577.69;;;7.95;80.54
19761;BME280;10039;42.632;23.408;2023-02-28T06:12:40;95602.44;;;8.23;80.09
19761;BME280;10039;42.632;23.408;2023-02-28T06:15:09;95591.41;;;8.18;80.47
19761;BME280;10039;42.632;23.408;2023-02-28T06:17:36;95575.78;;;7.85;81.04
19761;BME280;10039;42.632;23.408;2023-02-28T06:20:02;95581.84;;;7.78;81.92
19761;BME280;10039;42.632;23.408;2023-02-28T06:22:28;95609.59;;;7.98;82.14
19761;BME280;10039;42.632;23.408;2023-02-28T06:24:53;95580.34;;;7.74;82.26
19761;BME280;10039;42.632;23.408;2023-02-28T06:27:20;95588.34;;;7.91;82.63
19761;BME280;10039;42.632;23.408;2023-02-28T06:29:45;95573.88;;;7.72;82.69
19761;BME280;10039;42.632;23.408;2023-02-28T06:32:11;95606.16;;;7.91;82.99
19761;BME280;10039;42.632;23.408;2023-02-28T06:34:37;95561.75;;;7.74;82.76
19761;BME280;10039;42.632;23.408;2023-02-28T06:37:02;95606.56;;;7.96;82.73
19761;BME280;10039;42.632;23.408;2023-02-28T06:39:31;95598.97;;;8.12;82.42
19761;BME280;10039;42.632;23.408;2023-02-28T06:41:56;95595.97;;;8.28;82.51
19761;BME280;10039;42.632;23.408;2023-02-28T06:44:23;95586.84;;;8.08;81.96
19761;BME280;10039;42.632;23.408;2023-02-28T06:46:48;95595.94;;;8.14;82.08
19761;BME280;10039;42.632;23.408;2023-02-28T06:49:15;95608.88;;;8.19;82.35
19761;BME280;10039;42.632;23.408;2023-02-28T06:51:42;95588.75;;;8.11;82.52
19761;BME280;10039;42.632;23.408;2023-02-28T06:54:11;95608.13;;;8.32;81.54
19761;BME280;10039;42.632;23.408;2023-02-28T06:56:37;95605.84;;;8.24;81.77
19761;BME280;10039;42.632;23.408;2023-02-28T06:59:03;95585.28;;;8.14;81.20
19761;BME280;10039;42.632;23.408;2023-02-28T07:01:29;95609.66;;;8.37;81.57
19761;BME280;10039;42.632;23.408;2023-02-28T07:03:56;95605.84;;;8.48;81.22
19761;BME280;10039;42.632;23.408;2023-02-28T07:06:22;95594.84;;;8.46;81.02
19761;BME280;10039;42.632;23.408;2023-02-28T07:08:49;95592.91;;;8.54;79.65
19761;BME280;10039;42.632;23.408;2023-02-28T07:11:14;95590.66;;;8.52;79.89
19761;BME280;10039;42.632;23.408;2023-02-28T07:13:40;95598.22;;;8.61;80.43
19761;BME280;10039;42.632;23.408;2023-02-28T07:16:07;95596.72;;;8.67;80.26
19761;BME280;10039;42.632;23.408;2023-02-28T07:18:34;95589.13;;;8.55;80.62
19761;BME280;10039;42.632;23.408;2023-02-28T07:21:04;95572.41;;;8.51;80.52
19761;BME280;10039;42.632;23.408;2023-02-28T07:23:30;95591.34;;;8.81;80.64
19761;BME280;10039;42.632;23.408;2023-02-28T07:25:56;95583.78;;;8.72;80.43
19761;BME280;10039;42.632;23.408;2023-02-28T07:28:21;95583.41;;;8.74;80.87
19761;BME280;10039;42.632;23.408;2023-02-28T07:30:47;95586.81;;;8.71;80.96
19761;BME280;10039;42.632;23.408;2023-02-28T07:33:13;95599.75;;;8.76;82.91
19761;BME280;10039;42.632;23.408;2023-02-28T07:35:39;95590.63;;;8.66;83.85
19761;BME280;10039;42.632;23.408;2023-02-28T07:38:05;95593.69;;;8.51;84.84
19761;BME280;10039;42.632;23.408;2023-02-28T07:40:33;95592.16;;;8.50;86.47
19761;BME280;10039;42.632;23.408;2023-02-28T07:42:59;95594.06;;;8.53;87.63
19761;BME280;10039;42.632;23.408;2023-02-28T07:45:26;95616.47;;;8.69;87.74
19761;BME280;10039;42.632;23.408;2023-02-28T07:47:51;95563.28;;;8.48;87.63
19761;BME280;10039;42.632;23.408;2023-02-28T07:50:17;95611.88;;;8.80;86.61
19761;BME280;10039;42.632;23.408;2023-02-28T07:52:42;95613.38;;;8.95;86.55
19761;BME280;10039;42.632;23.408;2023-02-28T07:55:09;95588.34;;;8.72;87.49
19761;BME280;10039;42.632;23.408;2023-02-28T07:57:35;95619.06;;;9.00;87.77
19761;BME280;10039;42.632;23.408;2023-02-28T08:00:02;95597.75;;;9.11;87.48
19761;BME280;10039;42.632;23.408;2023-02-28T08:02:28;95592.78;;;9.09;87.67
19761;BME280;10039;42.632;23.408;2023-02-28T08:04:53;95592.78;;;9.09;87.05
19761;BME280;10039;42.632;23.408;2023-02-28T08:07:19;95604.19;;;9.17;87.58
19761;BME280;10039;42.632;23.408;2023-02-28T08:09:45;95585.94;;;9.15;88.72
19761;BME280;10039;42.632;23.408;2023-02-28T08:12:11;95608.66;;;9.48;88.58
19761;BME280;10039;42.632;23.408;2023-02-28T08:14:37;95606.28;;;9.60;88.87
19761;BME280;10039;42.632;23.408;2023-02-28T08:17:03;95585.06;;;9.43;88.62
19761;BME280;10039;42.632;23.408;2023-02-28T08:19:29;95610.06;;;9.70;89.03
19761;BME280;10039;42.632;23.408;2023-02-28T08:21:55;95597.06;;;9.75;88.42
19761;BME280;10039;42.632;23.408;2023-02-28T08:24:21;95558.38;;;9.53;88.00
19761;BME280;10039;42.632;23.408;2023-02-28T08:26:46;95598.59;;;9.76;88.77
19761;BME280;10039;42.632;23.408;2023-02-28T08:29:12;95574.28;;;9.67;87.44
19761;BME280;10039;42.632;23.408;2023-02-28T08:31:37;95587.56;;;9.78;87.60
19761;BME280;10039;42.632;23.408;2023-02-28T08:34:07;95592.44;;;9.86;86.59
19761;BME280;10039;42.632;23.408;2023-02-28T08:36:33;95609.84;;;10.08;85.06
19761;BME280;10039;42.632;23.408;2023-02-28T08:38:58;95587.81;;;10.01;85.08
19761;BME280;10039;42.632;23.408;2023-02-28T08:41:25;95582.47;;;9.97;84.35
19761;BME280;10039;42.632;23.408;2023-02-28T08:43:51;95571.78;;;10.04;83.51
19761;BME280;10039;42.632;23.408;2023-02-28T08:46:16;95586.56;;;10.12;84.75
19761;BME280;10039;42.632;23.408;2023-02-28T08:48:42;95589.06;;;10.36;85.66
19761;BME280;10039;42.632;23.408;2023-02-28T08:51:09;95612.31;;;10.80;84.14
19761;BME280;10039;42.632;23.408;2023-02-28T08:53:37;95606.84;;;10.94;82.61
19761;BME280;10039;42.632;23.408;2023-02-28T08:56:08;95614.38;;;11.02;80.11
19761;BME280;10039;42.632;23.408;2023-02-28T08:58:35;95589.31;;;10.93;77.70
19761;BME280;10039;42.632;23.408;2023-02-28T09:01:08;95607.47;;;11.08;77.06
19761;BME280;10039;42.632;23.408;2023-02-28T09:03:34;95623.38;;;11.18;78.41
19761;BME280;10039;42.632;23.408;2023-02-28T09:06:00;95603.28;;;11.07;78.67
19761;BME280;10039;42.632;23.408;2023-02-28T09:08:27;95608.13;;;11.15;77.00
19761;BME280;10039;42.632;23.408;2023-02-28T09:10:54;95605.72;;;11.28;75.80
19761;BME280;10039;42.632;23.408;2023-02-28T09:13:21;95610.91;;;11.42;75.31
19761;BME280;10039;42.632;23.408;2023-02-28T09:15:47;95600.41;;;11.24;75.48
19761;BME280;10039;42.632;23.408;2023-02-28T09:18:12;95584.97;;;11.39;74.96
19761;BME280;10039;42.632;23.408;2023-02-28T09:20:38;95606.16;;;11.56;76.42
19761;BME280;10039;42.632;23.408;2023-02-28T09:23:06;95596.19;;;11.60;74.37
19761;BME280;10039;42.632;23.408;2023-02-28T09:25:31;95584.63;;;11.33;76.14
19761;BME280;10039;42.632;23.408;2023-02-28T09:27:56;95569.75;;;11.32;76.76
19761;BME280;10039;42.632;23.408;2023-02-28T09:30:25;95608.47;;;11.51;78.25
19761;BME280;10039;42.632;23.408;2023-02-28T09:32:50;95618.41;;;11.54;78.35
19761;BME280;10039;42.632;23.408;2023-02-28T09:35:21;95611.47;;;11.60;77.55
19761;BME280;10039;42.632;23.408;2023-02-28T09:37:48;95620.28;;;11.87;78.05
19761;BME280;10039;42.632;23.408;2023-02-28T09:40:14;95612.16;;;11.94;76.82
19761;BME280;10039;42.632;23.408;2023-02-28T09:42:46;95590.47;;;11.88;74.76
19761;BME280;10039;42.632;23.408;2023-02-28T09:45:36;95577.56;;;12.10;72.72
19761;BME280;10039;42.632;23.408;2023-02-28T09:48:06;95595.88;;;12.34;70.64
19761;BME280;10039;42.632;23.408;2023-02-28T09:50:45;95591.47;;;12.47;71.68
19761;BME280;10039;42.632;23.408;2023-02-28T09:53:22;95598.09;;;12.39;71.04
19761;BME280;10039;42.632;23.408;2023-02-28T09:55:55;95592.28;;;12.44;70.77
19761;BME280;10039;42.632;23.408;2023-02-28T09:58:30;95582.41;;;12.41;70.59
19761;BME280;10039;42.632;23.408;2023-02-28T10:01:06;95584.72;;;12.16;70.00
19761;BME280;10039;42.632;23.408;2023-02-28T10:03:47;95566.59;;;12.01;71.92
19761;BME280;10039;42.632;23.408;2023-02-28T10:06:20;95591.56;;;12.17;73.58
19761;BME280;10039;42.632;23.408;2023-02-28T10:08:57;95598.84;;;11.90;75.00
19761;BME280;10039;42.632;23.408;2023-02-28T10:11:25;95595.38;;;11.93;76.20
19761;BME280;10039;42.632;23.408;2023-02-28T10:13:56;95587.00;;;11.91;75.01
19761;BME280;10039;42.632;23.408;2023-02-28T10:16:39;95573.09;;;11.73;74.91
19761;BME280;10039;42.632;23.408;2023-02-28T10:19:15;95566.28;;;11.69;75.15
19761;BME280;10039;42.632;23.408;2023-02-28T10:21:53;95578.28;;;11.84;75.28
19761;BME280;10039;42.632;23.408;2023-02-28T10:24:43;95572.94;;;11.84;75.51
19761;BME280;10039;42.632;23.408;2023-02-28T10:27:23;95579.78;;;11.88;75.70
19761;BME280;10039;42.632;23.408;2023-02-28T10:29:51;95549.38;;;11.75;75.20
19761;BME280;10039;42.632;23.408;2023-02-28T10:32:22;95570.59;;;11.89;75.15
19761;BME280;10039;42.632;23.408;2023-02-28T10:34:57;95571.06;;;12.07;74.80
19761;BME280;10039;42.632;23.408;2023-02-28T10:37:24;95562.19;;;12.14;73.98
19761;BME280;10039;42.632;23.408;2023-02-28T10:39:49;95557.34;;;12.05;72.38
19761;BME280;10039;42.632;23.408;2023-02-28T10:42:27;95539.06;;;12.00;72.59
19761;BME280;10039;42.632;23.408;2023-02-28T10:45:20;95549.66;;;12.07;71.59
19761;BME280;10039;42.632;23.408;2023-02-28T10:47:56;95547.28;;;12.13;71.94
19761;BME280;10039;42.632;23.408;2023-02-28T10:53:12;95507.66;;;11.81;72.48
19761;BME280;10039;42.632;23.408;2023-02-28T10:55:40;95534.66;;;11.90;73.49
19761;BME280;10039;42.632;23.408;2023-02-28T10:58:30;95534.59;;;12.17;73.28
19761;BME280;10039;42.632;23.408;2023-02-28T11:00:56;95488.69;;;11.95;71.65
19761;BME280;10039;42.632;23.408;2023-02-28T11:03:33;95523.28;;;12.32;71.36
19761;BME280;10039;42.632;23.408;2023-02-28T11:06:05;95522.09;;;12.10;72.12
19761;BME280;10039;42.632;23.408;2023-02-28T11:08:31;95514.97;;;12.04;72.04
19761;BME280;10039;42.632;23.408;2023-02-28T11:10:59;95513.56;;;12.19;71.99
19761;BME280;10039;42.632;23.408;2023-02-28T11:13:31;95523.72;;;12.27;72.05
19761;BME280;10039;42.632;23.408;2023-02-28T11:15:59;95485.56;;;12.00;72.13
19761;BME280;10039;42.632;23.408;2023-02-28T11:18:42;95516.94;;;12.00;71.94
19761;BME280;10039;42.632;23.408;2023-02-28T11:21:09;95478.34;;;11.74;73.07
19761;BME280;10039;42.632;23.408;2023-02-28T11:23:41;95510.00;;;12.02;73.60
19761;BME280;10039;42.632;23.408;2023-02-28T11:26:07;95502.38;;;12.01;73.89
19761;BME280;10039;42.632;23.408;2023-02-28T11:28:41;95504.66;;;12.02;73.56
19761;BME280;10039;42.632;23.408;2023-02-28T11:33:54;95502.09;;;12.18;73.43
19761;BME280;10039;42.632;23.408;2023-02-28T11:36:26;95464.97;;;11.97;72.96
19761;BME280;10039;42.632;23.408;2023-02-28T11:38:58;95490.72;;;12.14;71.52
19761;BME280;10039;42.632;23.408;2023-02-28T11:47:23;95450.78;;;11.54;72.57
19761;BME280;10039;42.632;23.408;2023-02-28T11:50:28;95491.06;;;11.93;72.64
19761;BME280;10039;42.632;23.408;2023-02-28T11:53:02;95494.41;;;11.97;72.34
19761;BME280;10039;42.632;23.408;2023-02-28T12:07:12;95501.41;;;12.14;72.12
19761;BME280;10039;42.632;23.408;2023-02-28T12:22:39;95488.81;;;12.76;69.81
19761;BME280;10039;42.632;23.408;2023-02-28T12:25:31;95488.59;;;12.48;69.82
19761;BME280;10039;42.632;23.408;2023-02-28T12:28:01;95478.13;;;12.34;70.90
19761;BME280;10039;42.632;23.408;2023-02-28T12:30:37;95491.56;;;12.30;70.72
19761;BME280;10039;42.632;23.408;2023-02-28T12:33:26;95492.31;;;12.31;70.89
19761;BME280;10039;42.632;23.408;2023-02-28T12:35:58;95487.47;;;12.26;70.64
19761;BME280;10039;42.632;23.408;2023-02-28T12:38:27;95496.97;;;12.27;71.07
19761;BME280;10039;42.632;23.408;2023-02-28T12:41:03;95480.00;;;12.14;70.34
19761;BME280;10039;42.632;23.408;2023-02-28T12:43:37;95482.44;;;12.05;71.46
19761;BME280;10039;42.632;23.408;2023-02-28T12:46:11;95492.22;;;12.15;71.67
19761;BME280;10039;42.632;23.408;2023-02-28T12:48:47;95478.22;;;12.27;71.57
19761;BME280;10039;42.632;23.408;2023-02-28T12:51:15;95470.63;;;12.26;71.25
19761;BME280;10039;42.632;23.408;2023-02-28T12:54:04;95482.22;;;12.19;71.22
19761;BME280;10039;42.632;23.408;2023-02-28T12:56:56;95479.22;;;12.14;70.77
19761;BME280;10039;42.632;23.408;2023-02-28T13:02:02;95483.25;;;12.02;71.89
19761;BME280;10039;42.632;23.408;2023-02-28T13:10:58;95487.78;;;12.51;69.84
19761;BME280;10039;42.632;23.408;2023-02-28T13:13:25;95475.56;;;12.50;68.57
19761;BME280;10039;42.632;23.408;2023-02-28T13:18:39;95476.94;;;12.77;68.27
19761;BME280;10039;42.632;23.408;2023-02-28T13:21:09;95482.84;;;12.69;67.67
19761;BME280;10039;42.632;23.408;2023-02-28T13:26:12;95476.69;;;12.91;66.79
19761;BME280;10039;42.632;23.408;2023-02-28T13:31:24;95470.09;;;12.96;66.59
19761;BME280;10039;42.632;23.408;2023-02-28T13:36:31;95460.81;;;13.20;66.35
19761;BME280;10039;42.632;23.408;2023-02-28T13:38:59;95468.44;;;13.21;66.00
19761;BME280;10039;42.632;23.408;2023-02-28T13:46:31;95450.56;;;12.76;66.12
19761;BME280;10039;42.632;23.408;2023-02-28T13:55:37;95447.28;;;12.49;66.78
19761;BME280;10039;42.632;23.408;2023-02-28T13:58:07;95442.03;;;12.42;67.86
19761;BME280;10039;42.632;23.408;2023-02-28T14:08:35;95436.50;;;12.10;68.59
19761;BME280;10039;42.632;23.408;2023-02-28T14:11:09;95454.81;;;12.12;68.65
19761;BME280;10039;42.632;23.408;2023-02-28T14:13:48;95447.41;;;11.96;69.62
19761;BME280;10039;42.632;23.408;2023-02-28T14:16:17;95452.44;;;11.94;69.67
19761;BME280;10039;42.632;23.408;2023-02-28T14:18:57;95451.84;;;11.83;70.10
19761;BME280;10039;42.632;23.408;2023-02-28T14:21:34;95424.34;;;11.60;70.38
19761;BME280;10039;42.632;23.408;2023-02-28T14:30:03;95431.88;;;11.38;70.86
19761;BME280;10039;42.632;23.408;2023-02-28T14:33:01;95474.38;;;11.59;71.55
19761;BME280;10039;42.632;23.408;2023-02-28T14:38:25;95473.16;;;11.64;71.65
19761;BME280;10039;42.632;23.408;2023-02-28T14:40:55;95473.06;;;11.71;71.05
19761;BME280;10039;42.632;23.408;2023-02-28T14:43:24;95470.06;;;11.65;70.46
19761;BME280;10039;42.632;23.408;2023-02-28T14:45:56;95458.03;;;11.54;70.05
19761;BME280;10039;42.632;23.408;2023-02-28T14:48:22;95453.53;;;11.74;70.71
19761;BME280;10039;42.632;23.408;2023-02-28T14:50:52;95475.63;;;12.01;69.65
19761;BME280;10039;42.632;23.408;2023-02-28T14:53:20;95469.94;;;11.99;69.15
19761;BME280;10039;42.632;23.408;2023-02-28T14:55:47;95478.94;;;11.85;69.50
19761;BME280;10039;42.632;23.408;2023-02-28T15:00:52;95441.44;;;11.66;69.47
19761;BME280;10039;42.632;23.408;2023-02-28T15:05:58;95474.13;;;11.77;69.38
19761;BME280;10039;42.632;23.408;2023-02-28T15:08:25;95465.06;;;11.67;69.87
19761;BME280;10039;42.632;23.408;2023-02-28T15:10:55;95471.91;;;11.72;69.63
19761;BME280;10039;42.632;23.408;2023-02-28T15:13:22;95459.88;;;11.83;69.88
19761;BME280;10039;42.632;23.408;2023-02-28T15:16:03;95467.03;;;11.90;69.51
19761;BME280;10039;42.632;23.408;2023-02-28T15:19:05;95435.66;;;11.67;69.70
19761;BME280;10039;42.632;23.408;2023-02-28T15:21:38;95474.75;;;11.61;70.12
19761;BME280;10039;42.632;23.408;2023-02-28T15:26:39;95451.94;;;11.23;71.39
19761;BME280;10039;42.632;23.408;2023-02-28T15:29:13;95478.91;;;11.06;71.98
19761;BME280;10039;42.632;23.408;2023-02-28T15:31:46;95483.91;;;11.01;72.76